You are listening to:
KATL Departure (Rwys 8/26) - Atlanta, Georgia, United States

KATL 251852Z 11011G20KT 10SM SCT026TCU BKN034 BKN140 BKN200 26/19 A3011 RMK AO2 SLP186 TCU SE-SW MDT CU ALQDS T02610189

If stream doesn't start automatically press the play button
If stream stops then reload player then press play